createdAt,value
2018-06-10T00:00:51.055Z,16.13
2018-06-10T00:03:20.016Z,15.40
2018-06-10T00:05:48.946Z,17.00
2018-06-10T00:08:17.923Z,14.07
2018-06-10T00:10:47.112Z,14.33
2018-06-10T00:13:16.077Z,14.30
2018-06-10T00:15:45.118Z,14.17
2018-06-10T00:18:14.083Z,13.07
2018-06-10T00:20:43.149Z,15.17
2018-06-10T00:23:12.268Z,14.50
2018-06-10T00:25:41.254Z,14.67
2018-06-10T00:28:10.511Z,14.43
2018-06-10T00:30:39.630Z,14.10
2018-06-10T00:33:08.567Z,15.30
2018-06-10T00:35:37.485Z,15.07
2018-06-10T00:38:06.435Z,17.10
2018-06-10T00:40:35.426Z,20.47
2018-06-10T00:43:04.461Z,24.43
2018-06-10T00:45:33.405Z,27.93
2018-06-10T00:48:02.526Z,29.37
2018-06-10T00:50:31.269Z,32.50
2018-06-10T00:53:00.038Z,28.60
2018-06-10T00:55:29.263Z,28.70
2018-06-10T00:57:58.272Z,26.80
2018-06-10T01:00:27.289Z,27.10
2018-06-10T01:02:55.961Z,28.10
2018-06-10T01:05:24.700Z,26.90
2018-06-10T01:07:53.670Z,25.63
2018-06-10T01:10:22.614Z,23.87
2018-06-10T01:12:51.834Z,26.27
2018-06-10T01:15:20.824Z,24.83
2018-06-10T01:17:49.766Z,24.40
2018-06-10T01:20:18.691Z,23.13
2018-06-10T01:22:47.738Z,25.57
2018-06-10T01:25:16.669Z,24.37
2018-06-10T01:27:45.791Z,24.23
2018-06-10T01:30:14.867Z,25.47
2018-06-10T01:32:43.838Z,18.63
2018-06-10T01:35:12.973Z,18.50
2018-06-10T01:37:42.017Z,18.87
2018-06-10T01:40:11.031Z,17.97
2018-06-10T01:42:39.984Z,20.90
2018-06-10T01:45:08.957Z,20.23
2018-06-10T01:47:37.890Z,13.70
2018-06-10T01:50:06.861Z,17.63
2018-06-10T01:52:35.808Z,19.10
2018-06-10T01:55:04.879Z,17.60
2018-06-10T01:57:33.882Z,18.37
2018-06-10T02:00:02.889Z,21.27
2018-06-10T02:02:31.769Z,20.30
2018-06-10T02:05:00.702Z,18.93
2018-06-10T02:07:29.674Z,22.80
2018-06-10T02:09:58.710Z,23.37
2018-06-10T02:12:27.873Z,21.80
2018-06-10T02:14:56.803Z,20.60
2018-06-10T02:17:25.749Z,20.57
2018-06-10T02:19:54.688Z,20.40
2018-06-10T02:22:23.639Z,25.97
2018-06-10T02:24:52.600Z,24.80
2018-06-10T02:27:21.649Z,26.03
2018-06-10T02:29:50.574Z,24.20
2018-06-10T02:32:19.290Z,24.57
2018-06-10T02:34:48.031Z,25.17
2018-06-10T02:37:17.035Z,26.30
2018-06-10T02:39:45.937Z,26.97
2018-06-10T02:42:15.233Z,22.00
2018-06-10T02:44:44.119Z,20.47
2018-06-10T02:47:12.842Z,25.60
2018-06-10T02:49:41.794Z,21.03
2018-06-10T02:52:10.890Z,28.40
2018-06-10T02:54:40.087Z,24.33
2018-06-10T02:57:08.992Z,18.43
2018-06-10T02:59:37.769Z,29.80
2018-06-10T03:02:06.764Z,23.87
2018-06-10T03:04:35.758Z,27.70
2018-06-10T03:07:04.711Z,27.30
2018-06-10T03:09:34.094Z,29.93
2018-06-10T03:12:03.070Z,27.60
2018-06-10T03:14:32.034Z,29.13
2018-06-10T03:17:01.417Z,26.73
2018-06-10T03:19:30.500Z,27.20
2018-06-10T03:21:59.573Z,30.30
2018-06-10T03:24:28.523Z,24.60
2018-06-10T03:26:57.419Z,27.30
2018-06-10T03:29:26.331Z,25.60
2018-06-10T03:31:55.259Z,30.70
2018-06-10T03:34:24.202Z,23.73
2018-06-10T03:36:53.323Z,30.73
2018-06-10T03:39:22.268Z,25.83
2018-06-10T03:41:51.212Z,25.77
2018-06-10T03:44:20.283Z,23.40
2018-06-10T03:46:49.221Z,19.97
2018-06-10T03:49:18.237Z,17.80
2018-06-10T03:51:47.207Z,17.57
2018-06-10T03:54:16.081Z,16.90
2018-06-10T03:56:45.141Z,18.63
2018-06-10T03:59:14.043Z,17.90
2018-06-10T04:01:42.990Z,17.33
2018-06-10T04:04:11.938Z,15.63
2018-06-10T04:06:40.902Z,13.63
2018-06-10T04:09:09.883Z,16.90
2018-06-10T04:11:38.816Z,16.07
2018-06-10T04:14:07.892Z,16.03
2018-06-10T04:16:36.859Z,15.20
2018-06-10T04:19:05.795Z,14.43
2018-06-10T04:21:34.768Z,16.00
2018-06-10T04:24:03.688Z,15.80
2018-06-10T04:26:32.462Z,16.03
2018-06-10T04:29:01.306Z,15.47
2018-06-10T04:31:30.369Z,15.30
2018-06-10T04:33:59.258Z,12.87
2018-06-10T04:36:28.282Z,13.70
2018-06-10T04:38:57.250Z,17.50
2018-06-10T04:41:26.184Z,14.33
2018-06-10T04:43:55.118Z,15.57
2018-06-10T04:46:24.098Z,17.40
2018-06-10T04:48:53.135Z,16.23
2018-06-10T04:51:22.127Z,15.43
2018-06-10T04:53:51.183Z,15.63
2018-06-10T04:56:20.138Z,14.83
2018-06-10T04:58:49.079Z,16.47
2018-06-10T05:01:18.103Z,14.93
2018-06-10T05:03:47.257Z,14.37
2018-06-10T05:06:16.345Z,17.23
2018-06-10T05:08:45.362Z,14.20
2018-06-10T05:11:14.423Z,18.63
2018-06-10T05:13:43.361Z,16.47
2018-06-10T05:16:13.649Z,12.73
2018-06-10T05:18:42.817Z,17.70
2018-06-10T05:21:11.761Z,15.93
2018-06-10T05:23:40.721Z,17.50
2018-06-10T05:26:09.805Z,17.40
2018-06-10T05:28:38.811Z,17.00
2018-06-10T05:31:07.941Z,18.17
2018-06-10T05:33:36.862Z,14.73
2018-06-10T05:36:05.997Z,16.87
2018-06-10T05:38:35.129Z,16.30
2018-06-10T05:41:04.128Z,17.83
2018-06-10T05:43:33.151Z,15.47
2018-06-10T05:46:02.179Z,15.33
2018-06-10T05:48:31.312Z,16.73
2018-06-10T05:51:00.290Z,19.33
2018-06-10T05:53:29.346Z,19.57
2018-06-10T05:55:58.023Z,18.17
2018-06-10T05:58:26.792Z,19.10
2018-06-10T06:00:56.009Z,16.83
2018-06-10T06:03:24.977Z,15.00
2018-06-10T06:05:54.047Z,17.90
2018-06-10T06:08:23.078Z,17.33
2018-06-10T06:10:52.228Z,16.27
2018-06-10T06:13:21.155Z,18.97
2018-06-10T06:15:50.363Z,17.53
2018-06-10T06:18:19.366Z,17.53
2018-06-10T06:20:48.366Z,19.47
2018-06-10T06:23:17.110Z,19.40
2018-06-10T06:25:45.876Z,18.97
2018-06-10T06:28:15.050Z,19.27
2018-06-10T06:30:44.003Z,18.93
2018-06-10T06:33:13.009Z,19.33
2018-06-10T06:35:42.097Z,17.13
2018-06-10T06:38:11.351Z,19.27
2018-06-10T06:40:40.294Z,21.53
2018-06-10T06:43:09.240Z,18.80
2018-06-10T06:45:38.294Z,16.90
2018-06-10T06:48:09.086Z,19.27
2018-06-10T06:50:37.887Z,19.00
2018-06-10T06:53:06.833Z,23.20
2018-06-10T06:55:35.826Z,26.83
2018-06-10T06:58:04.802Z,23.63
2018-06-10T07:00:33.785Z,18.87
2018-06-10T07:03:02.758Z,24.73
2018-06-10T07:05:31.880Z,31.00
2018-06-10T07:08:00.992Z,34.53
2018-06-10T07:10:29.949Z,31.37
2018-06-10T07:12:58.881Z,35.93
2018-06-10T07:15:28.034Z,37.27
2018-06-10T07:17:57.107Z,35.80
2018-06-10T07:20:26.074Z,32.20
2018-06-10T07:22:55.099Z,32.03
2018-06-10T07:25:24.209Z,36.27
2018-06-10T07:27:53.238Z,38.17
2018-06-10T07:30:22.277Z,35.60
2018-06-10T07:32:51.262Z,38.73
2018-06-10T07:35:20.465Z,35.20
2018-06-10T07:37:49.406Z,39.17
2018-06-10T07:40:18.459Z,37.67
2018-06-10T07:42:47.558Z,35.57
2018-06-10T07:45:16.230Z,33.90
2018-06-10T07:47:44.973Z,31.87
2018-06-10T07:50:13.918Z,29.17
2018-06-10T07:52:43.101Z,28.20
2018-06-10T07:55:12.076Z,31.20
2018-06-10T07:57:41.008Z,27.57
2018-06-10T08:00:10.054Z,25.77
2018-06-10T08:02:38.686Z,21.40
2018-06-10T08:05:07.598Z,24.20
2018-06-10T08:07:36.565Z,28.23
2018-06-10T08:10:05.625Z,29.67
2018-06-10T08:12:34.322Z,25.47
2018-06-10T08:15:03.362Z,23.33
2018-06-10T08:17:32.405Z,26.00
2018-06-10T08:20:01.402Z,24.17
2018-06-10T08:22:30.478Z,26.63
2018-06-10T08:24:59.431Z,25.00
2018-06-10T08:27:28.458Z,24.63
2018-06-10T08:29:57.443Z,25.30
2018-06-10T08:32:26.382Z,23.40
2018-06-10T08:34:55.356Z,23.93
2018-06-10T08:37:24.386Z,27.13
2018-06-10T08:39:53.368Z,25.87
2018-06-10T08:42:22.335Z,23.53
2018-06-10T08:44:51.309Z,24.30
2018-06-10T08:47:20.319Z,23.63
2018-06-10T08:49:49.360Z,22.70
2018-06-10T08:52:18.489Z,23.93
2018-06-10T08:54:47.522Z,21.90
2018-06-10T08:57:16.645Z,22.33
2018-06-10T08:59:45.582Z,22.37
2018-06-10T09:02:14.601Z,22.30
2018-06-10T09:04:43.665Z,21.43
2018-06-10T09:07:12.690Z,21.97
2018-06-10T09:09:41.837Z,22.87
2018-06-10T09:12:10.876Z,22.33
2018-06-10T09:14:39.854Z,20.07
2018-06-10T09:17:08.849Z,21.23
2018-06-10T09:19:37.906Z,20.80
2018-06-10T09:22:06.845Z,21.67
2018-06-10T09:24:35.841Z,21.30
2018-06-10T09:27:05.071Z,22.23
2018-06-10T09:29:34.047Z,20.80
2018-06-10T09:32:03.137Z,21.53
2018-06-10T09:34:32.210Z,21.33
2018-06-10T09:37:01.173Z,20.97
2018-06-10T09:39:30.137Z,19.10
2018-06-10T09:41:59.086Z,21.63
2018-06-10T09:44:28.233Z,18.50
2018-06-10T09:46:57.190Z,20.80
2018-06-10T09:49:26.317Z,17.53
2018-06-10T09:51:55.494Z,20.00
2018-06-10T09:54:24.465Z,18.70
2018-06-10T09:56:53.463Z,23.40
2018-06-10T09:59:22.618Z,24.07
2018-06-10T10:01:51.698Z,23.57
2018-06-10T10:04:20.901Z,22.20
2018-06-10T10:06:50.218Z,20.93
2018-06-10T10:09:19.190Z,18.97
2018-06-10T10:11:48.330Z,18.30
2018-06-10T10:14:17.363Z,19.67
2018-06-10T10:16:46.537Z,19.77
2018-06-10T10:19:15.638Z,19.80
2018-06-10T10:21:44.781Z,20.37
2018-06-10T10:24:13.757Z,19.97
2018-06-10T10:26:42.736Z,21.57
2018-06-10T10:29:11.695Z,19.60
2018-06-10T10:31:40.749Z,19.87
2018-06-10T10:34:09.875Z,19.53
2018-06-10T10:36:39.163Z,19.20
2018-06-10T10:39:08.139Z,18.70
2018-06-10T10:41:37.126Z,17.10
2018-06-10T10:44:06.202Z,18.50
2018-06-10T10:46:35.223Z,16.10
2018-06-10T10:49:04.454Z,16.93
2018-06-10T10:51:33.495Z,16.13
2018-06-10T10:54:02.410Z,17.13
2018-06-10T10:56:31.374Z,18.93
2018-06-10T10:59:00.324Z,17.10
2018-06-10T11:01:29.343Z,17.77
2018-06-10T11:03:58.126Z,18.00
2018-06-10T11:06:26.900Z,15.20
2018-06-10T11:08:55.850Z,18.10
2018-06-10T11:11:24.836Z,17.97
2018-06-10T11:13:53.750Z,17.33
2018-06-10T11:16:22.749Z,18.63
2018-06-10T11:18:51.777Z,17.50
2018-06-10T11:21:20.882Z,18.10
2018-06-10T11:23:49.874Z,18.20
2018-06-10T11:26:19.030Z,17.57
2018-06-10T11:28:48.006Z,18.10
2018-06-10T11:31:17.027Z,17.13
2018-06-10T11:33:46.070Z,17.20
2018-06-10T11:36:15.073Z,13.70
2018-06-10T11:38:44.052Z,16.57
2018-06-10T11:41:13.132Z,17.07
2018-06-10T11:43:42.130Z,16.40
2018-06-10T11:46:11.290Z,17.93
2018-06-10T11:48:40.379Z,18.47
2018-06-10T11:51:09.353Z,17.27
2018-06-10T11:53:38.402Z,19.37
2018-06-10T11:56:07.499Z,19.07
2018-06-10T11:58:36.421Z,18.37
2018-06-10T12:01:05.371Z,21.73
2018-06-10T12:03:34.482Z,18.57
2018-06-10T12:06:03.459Z,21.97
2018-06-10T12:08:32.457Z,18.07
2018-06-10T12:11:01.506Z,20.03
2018-06-10T12:13:30.507Z,19.13
2018-06-10T12:15:59.506Z,18.80
2018-06-10T12:18:28.361Z,20.27
2018-06-10T12:20:57.202Z,16.60
2018-06-10T12:23:26.160Z,16.60
2018-06-10T12:25:55.084Z,16.47
2018-06-10T12:28:24.018Z,16.83
2018-06-10T12:30:53.043Z,17.10
2018-06-10T12:33:22.034Z,17.47
2018-06-10T12:35:51.235Z,17.03
2018-06-10T12:38:20.173Z,18.47
2018-06-10T12:40:49.177Z,16.70
2018-06-10T12:43:18.418Z,17.67
2018-06-10T12:45:47.479Z,15.47
2018-06-10T12:48:16.498Z,15.97
2018-06-10T12:50:45.432Z,15.33
2018-06-10T12:53:14.519Z,16.87
2018-06-10T12:55:43.486Z,14.87
2018-06-10T12:58:12.165Z,16.17
2018-06-10T13:00:41.086Z,12.87
2018-06-10T13:03:10.125Z,13.40
2018-06-10T13:05:39.145Z,14.57
2018-06-10T13:08:08.136Z,12.83
2018-06-10T13:10:37.142Z,13.43
2018-06-10T13:13:06.109Z,13.50
2018-06-10T13:15:35.325Z,14.37
2018-06-10T13:18:04.597Z,11.53
2018-06-10T13:20:34.043Z,12.87
2018-06-10T13:23:02.801Z,14.40
2018-06-10T13:25:31.559Z,13.00
2018-06-10T13:28:00.582Z,13.67
2018-06-10T13:30:29.530Z,13.03
2018-06-10T13:32:58.667Z,12.00
2018-06-10T13:35:27.639Z,13.07
2018-06-10T13:37:56.366Z,12.40
2018-06-10T13:40:25.223Z,10.63
2018-06-10T13:42:54.222Z,14.27
2018-06-10T13:45:23.953Z,14.03
2018-06-10T13:47:53.075Z,12.87
2018-06-10T13:50:22.523Z,11.67
2018-06-10T13:52:51.650Z,11.50
2018-06-10T13:55:20.587Z,10.70
2018-06-10T13:57:50.866Z,11.10
2018-06-10T14:00:19.974Z,10.93
2018-06-10T14:02:48.902Z,11.70
2018-06-10T14:05:17.998Z,12.57
2018-06-10T14:07:46.961Z,11.10
2018-06-10T14:10:15.938Z,10.53
2018-06-10T14:12:45.082Z,10.20
2018-06-10T14:15:13.813Z,9.87
2018-06-10T14:17:42.578Z,10.70
2018-06-10T14:20:11.593Z,11.53
2018-06-10T14:22:40.674Z,13.20
2018-06-10T14:25:09.322Z,11.43
2018-06-10T14:27:38.519Z,10.97
2018-06-10T14:30:07.585Z,10.90
2018-06-10T14:32:36.632Z,10.93
2018-06-10T14:35:05.641Z,11.83
2018-06-10T14:37:34.769Z,11.53
2018-06-10T14:40:03.834Z,10.17
2018-06-10T14:42:32.963Z,11.40
2018-06-10T14:45:02.289Z,10.03
2018-06-10T14:47:31.239Z,12.17
2018-06-10T14:50:00.196Z,10.00
2018-06-10T14:52:29.241Z,11.40
2018-06-10T14:54:58.237Z,10.53
2018-06-10T14:57:27.154Z,11.40
2018-06-10T14:59:56.218Z,11.67
2018-06-10T15:02:25.239Z,11.03
2018-06-10T15:04:54.127Z,10.43
2018-06-10T15:07:22.869Z,10.37
2018-06-10T15:09:51.845Z,10.13
2018-06-10T15:12:20.891Z,10.53
2018-06-10T15:14:49.986Z,10.67
2018-06-10T15:17:19.017Z,10.60
2018-06-10T15:19:48.063Z,9.87
2018-06-10T15:22:17.896Z,10.53
2018-06-10T15:24:47.246Z,9.97
2018-06-10T15:27:16.303Z,9.83
2018-06-10T15:29:45.452Z,10.53
2018-06-10T15:32:14.399Z,9.53
2018-06-10T15:34:45.499Z,9.67
2018-06-10T15:37:14.731Z,9.17
2018-06-10T15:39:43.702Z,9.43
2018-06-10T15:42:16.417Z,10.20
2018-06-10T15:44:46.623Z,11.57
2018-06-10T15:47:15.702Z,10.33
2018-06-10T15:49:44.842Z,9.53
2018-06-10T15:52:13.868Z,10.13
2018-06-10T15:54:44.876Z,9.57
2018-06-10T15:57:14.020Z,9.47
2018-06-10T15:59:42.989Z,8.67
2018-06-10T16:02:12.120Z,9.40
2018-06-10T16:04:41.302Z,9.30
2018-06-10T16:07:10.392Z,9.33
2018-06-10T16:09:39.613Z,9.20
2018-06-10T16:12:08.743Z,8.37
2018-06-10T16:14:37.843Z,10.37
2018-06-10T16:17:07.627Z,9.97
2018-06-10T16:19:36.581Z,9.63
2018-06-10T16:22:06.638Z,9.37
2018-06-10T16:24:35.966Z,8.50
2018-06-10T16:27:04.961Z,8.43
2018-06-10T16:29:33.911Z,9.60
2018-06-10T16:32:03.022Z,9.77
2018-06-10T16:34:32.173Z,9.57
2018-06-10T16:37:01.266Z,9.30
2018-06-10T16:39:29.958Z,9.97
2018-06-10T16:41:58.648Z,8.50
2018-06-10T16:44:27.831Z,8.80
2018-06-10T16:46:56.806Z,8.47
2018-06-10T16:49:25.878Z,9.17
2018-06-10T16:51:55.069Z,9.30
2018-06-10T16:54:24.542Z,8.50
2018-06-10T16:56:53.919Z,9.17
2018-06-10T16:59:22.869Z,8.53
2018-06-10T17:01:51.792Z,8.37
2018-06-10T17:04:20.762Z,8.37
2018-06-10T17:06:49.834Z,8.57
2018-06-10T17:09:18.859Z,9.63
2018-06-10T17:11:47.865Z,8.00
2018-06-10T17:14:16.906Z,8.20
2018-06-10T17:16:45.978Z,8.23
2018-06-10T17:19:15.043Z,7.80
2018-06-10T17:21:44.124Z,7.60
2018-06-10T17:24:13.079Z,7.47
2018-06-10T17:26:42.089Z,7.87
2018-06-10T17:29:11.416Z,7.70
2018-06-10T17:31:40.400Z,7.93
2018-06-10T17:34:09.390Z,6.83
2018-06-10T17:36:38.369Z,7.40
2018-06-10T17:39:07.625Z,7.23
2018-06-10T17:41:36.567Z,7.30
2018-06-10T17:44:05.633Z,6.57
2018-06-10T17:46:34.798Z,6.80
2018-06-10T17:49:03.815Z,6.73
2018-06-10T17:51:32.861Z,6.87
2018-06-10T17:54:01.989Z,7.10
2018-06-10T17:56:30.994Z,7.37
2018-06-10T17:59:00.049Z,7.07
2018-06-10T18:01:29.061Z,6.90
2018-06-10T18:03:58.078Z,7.30
2018-06-10T18:06:27.110Z,6.37
2018-06-10T18:08:55.995Z,7.63
2018-06-10T18:11:24.959Z,6.57
2018-06-10T18:13:54.027Z,7.70
2018-06-10T18:16:23.111Z,7.23
2018-06-10T18:18:52.975Z,7.87
2018-06-10T18:21:21.963Z,6.43
2018-06-10T18:23:51.088Z,7.63
2018-06-10T18:26:20.022Z,7.27
2018-06-10T18:28:49.268Z,7.47
2018-06-10T18:31:18.396Z,6.77
2018-06-10T18:33:47.667Z,6.43
2018-06-10T18:36:16.703Z,7.50
2018-06-10T18:38:45.633Z,7.63
2018-06-10T18:41:14.703Z,7.23
2018-06-10T18:43:43.614Z,7.87
2018-06-10T18:46:13.050Z,7.00
2018-06-10T18:48:42.086Z,6.40
2018-06-10T18:51:11.163Z,7.73
2018-06-10T18:53:40.445Z,6.57
2018-06-10T18:56:09.605Z,7.57
2018-06-10T18:58:38.583Z,7.67
2018-06-10T19:01:07.589Z,6.70
2018-06-10T19:03:36.593Z,6.87
2018-06-10T19:06:05.596Z,7.23
2018-06-10T19:08:34.563Z,7.40
2018-06-10T19:11:03.590Z,8.50
2018-06-10T19:13:32.597Z,9.43
2018-06-10T19:16:01.777Z,7.50
2018-06-10T19:18:30.923Z,7.90
2018-06-10T19:21:00.268Z,8.27
2018-06-10T19:23:29.294Z,8.30
2018-06-10T19:26:03.206Z,8.33
2018-06-10T19:28:32.188Z,8.93
2018-06-10T19:31:01.219Z,7.17
2018-06-10T19:33:30.235Z,9.10
2018-06-10T19:35:59.263Z,8.83
2018-06-10T19:38:28.370Z,10.00
2018-06-10T19:40:57.555Z,8.70
2018-06-10T19:43:26.674Z,9.00
2018-06-10T19:45:55.834Z,9.30
2018-06-10T19:48:24.960Z,9.47
2018-06-10T19:50:54.163Z,9.50
2018-06-10T19:53:23.143Z,8.73
2018-06-10T19:55:52.238Z,10.97
2018-06-10T19:58:21.381Z,10.20
2018-06-10T20:00:50.275Z,10.93
2018-06-10T20:03:19.101Z,10.63
2018-06-10T20:05:48.186Z,10.70
2018-06-10T20:08:18.317Z,10.97
2018-06-10T20:10:47.385Z,11.80
2018-06-10T20:13:16.207Z,11.90
2018-06-10T20:15:45.217Z,10.23
2018-06-10T20:18:14.240Z,10.77
2018-06-10T20:20:43.262Z,10.43
2018-06-10T20:23:12.297Z,10.80
2018-06-10T20:25:41.354Z,10.33
2018-06-10T20:28:10.457Z,9.83
2018-06-10T20:30:39.461Z,10.97
2018-06-10T20:33:08.526Z,11.03
2018-06-10T20:35:37.532Z,10.40
2018-06-10T20:38:06.578Z,11.60
2018-06-10T20:40:35.510Z,10.93
2018-06-10T20:43:04.494Z,9.73
2018-06-10T20:45:33.478Z,10.30
2018-06-10T20:48:02.445Z,10.77
2018-06-10T20:50:31.431Z,11.67
2018-06-10T20:53:00.446Z,11.47
2018-06-10T20:55:29.363Z,11.83
2018-06-10T20:57:58.448Z,11.80
2018-06-10T21:00:27.608Z,11.30
2018-06-10T21:02:56.750Z,11.20
2018-06-10T21:05:26.579Z,11.53
2018-06-10T21:07:55.625Z,11.43
2018-06-10T21:10:24.846Z,11.53
2018-06-10T21:12:53.887Z,11.97
2018-06-10T21:15:22.994Z,12.17
2018-06-10T21:17:52.126Z,12.50
2018-06-10T21:20:21.270Z,11.33
2018-06-10T21:22:50.308Z,12.43
2018-06-10T21:25:19.921Z,11.43
2018-06-10T21:27:49.201Z,12.60
2018-06-10T21:30:18.179Z,11.70
2018-06-10T21:32:47.185Z,11.80
2018-06-10T21:35:16.118Z,11.47
2018-06-10T21:37:45.185Z,11.53
2018-06-10T21:40:14.185Z,11.30
2018-06-10T21:42:43.533Z,12.60
2018-06-10T21:45:12.526Z,12.77
2018-06-10T21:47:41.693Z,11.57
2018-06-10T21:50:10.880Z,12.80
2018-06-10T21:52:39.937Z,12.53
2018-06-10T21:55:08.936Z,13.30
2018-06-10T21:57:38.026Z,13.77
2018-06-10T22:00:17.252Z,14.03
2018-06-10T22:02:46.237Z,15.03
2018-06-10T22:05:15.186Z,12.97
2018-06-10T22:07:45.395Z,15.43
2018-06-10T22:10:14.349Z,16.33
2018-06-10T22:12:43.302Z,15.33
2018-06-10T22:15:12.255Z,16.33
2018-06-10T22:17:41.219Z,15.63
2018-06-10T22:20:10.154Z,16.97
2018-06-10T22:22:39.331Z,15.67
2018-06-10T22:25:08.416Z,16.87
2018-06-10T22:27:38.269Z,16.67
2018-06-10T22:30:07.340Z,15.60
2018-06-10T22:32:36.243Z,16.50
2018-06-10T22:35:05.258Z,16.67
2018-06-10T22:37:34.257Z,16.30
2018-06-10T22:40:03.275Z,14.10
2018-06-10T22:42:32.254Z,17.03
2018-06-10T22:45:01.233Z,16.67
2018-06-10T22:47:30.203Z,17.10
2018-06-10T22:49:59.166Z,17.50
2018-06-10T22:52:28.124Z,16.77
2018-06-10T22:54:57.112Z,17.27
2018-06-10T22:57:26.213Z,17.70
2018-06-10T22:59:55.170Z,17.87
2018-06-10T23:02:24.182Z,17.10
2018-06-10T23:04:53.161Z,17.20
2018-06-10T23:07:22.138Z,14.87
2018-06-10T23:09:51.125Z,17.10
2018-06-10T23:12:20.111Z,17.77
2018-06-10T23:14:49.062Z,16.97
2018-06-10T23:17:18.038Z,17.27
2018-06-10T23:19:47.019Z,17.03
2018-06-10T23:22:16.122Z,18.07
2018-06-10T23:24:45.052Z,15.20
2018-06-10T23:27:14.223Z,16.23
2018-06-10T23:29:43.093Z,16.07
2018-06-10T23:32:12.062Z,16.20
2018-06-10T23:34:41.029Z,15.17
2018-06-10T23:37:10.106Z,15.77
2018-06-10T23:39:39.057Z,14.87
2018-06-10T23:42:08.011Z,14.40
2018-06-10T23:44:36.957Z,15.27
2018-06-10T23:47:06.003Z,16.97
2018-06-10T23:49:34.952Z,15.57
2018-06-10T23:52:03.896Z,14.17
2018-06-10T23:54:32.848Z,13.50
2018-06-10T23:57:01.804Z,14.63
2018-06-10T23:59:30.789Z,14.03
